Aeroporto :
LOGIN :

Iscrizione | Disclaimer

   EN    FR    IT 

 










Sommario :    VFR   VFR Marginale   IFR   IFR Intensivo   IFR Molto Intensivo
Visibilità : 
Base nubi : 
>= 8 km
>= 3000ft
5 / 8 km
1000 / 3000 ft
1500m / 5 km
500 / 1000 ft
800 / 1500m
200 / 500 ft
< 800m
< 200 ft
Simboli :   Temporali  Nebbia  Neve Forte  Precipitazioni Forti  Vento > 20 kt
SIGMETs :   Varie  Temporali  Ghiacco  Turbolenza  Onda orograficha  Ceneri Vulcaniche






- Altitudine del aeroporto : 32 ft
- Codice IATA : LKZ


EGUL - RAF Lakenheath

ULTIMO METAR :
  • 011956Z AUTO 22004KT 9999 OVC055 06/01 A3009 RMK AO2 SLP193 T00640011 $

METARs OBSOLETI :
  • 011856Z AUTO 23003KT 9999 OVC055 06/02 A3009 RMK AO2 SLP193 T00620015 $
  • 011756Z AUTO 27003KT 9999 OVC060 07/02 A3010 RMK AO2 SLP197 60000 T00740015 10089 20071 56009 $

TAF TAF EGUL
Valido dal 01 a 14 ore il 02 a 20 ore UTC


011400Z 0114/0220 29009KT 9999 BKN050 620502 QNH3007INS
BECMG 0200/0201 28005KT 9999 BKN020 620402 QNH2997INS
TEMPO 0206/0208 BKN015
BECMG 0207/0208 28012G18KT 9999 BKN025 620402 QNH2987INS TX11/0114Z TN02/0206Z
TEMPO 0213/0216 27020G25KT LAST NO AMDS AFT 0114 NEXT 0206



MetMap, La meteo Aeronautica in un colpo d'occhio ! - Copyright ORBIFLY Dicembre 2007 - Disclaimer

ORBIFLY MET'MAP TEAM :

Programmazione e sviluppo : Alexandra Zaïnal
Concezione : Baudouin d'Aumeries
Aiuto per la programmazione : Marc-Olivier Méhu
Supporto tecnico e logistico : Manuel Goepfert
Aiuto per la traduzione : Arnaldo La Scala

Contatto : metmap@orbifly.com




FONTI E CREDITI :

   NOAA